Airfield :
LOGIN :

Register | Disclaimer

   EN    FR    IT 

 










Legend :    VFR   Marginal VFR   IFR   Intensive IFR   Very Intensive IFR
Visi :
Ceiling :
>= 8 km
>= 3000ft
5 to 8 km
1000 to 3000 ft
1500m to 5 km
500 to 1000 ft
800 to 1500m
200 to 500 ft
< 800m
< 200 ft
Symbols :   Thunderstorms  Fog  Heavy snow  Heavy precipitations  Wind > 20 kt
SIGMETs :     Misc.  Thunderstorms  Icing  Turbulence  Mountain Waves  Volcanic Ashes






- Airport Elevation : 336 ft
- IATA code : GCI


EGJB - Guernsey

CURRENT METAR :
  • 080150Z 21020KT 9000 RA FEW010 BKN014 11/10 Q1008

EXPIRED METARs :
  • 080050Z 20021KT 9999 -RA FEW014 11/09 Q1009
  • 072350Z 20021KT 9999 OVC014 10/08 Q1010

TAF TAF EGJB
Valid from the 08 at 00:00 until the 08 at 09:00 UTC


072301Z 0800/0809 22019KT 9999 BKN015
TEMPO 0800/0803 22020G30KT BKN010
BECMG 0801/0803 22025G38KT 7000 RADZ BKN010
TEMPO 0802/0805 3000 +RA BKN004
BECMG 0804/0806 28023G35KT 9999 NSW SCT015
ATIS : +44 1481 238 957



MET'MAP, your aeronautical weather chart ! - Copyright ORBIFLY December 2007 - Disclaimer

ORBIFLY MET'MAP TEAM :

Programming & Development : Alexandra Zaïnal
Concept & original design : Baudouin d'Aumeries
Assistance for programming : Marc-Olivier Méhu
Technical & hardware support : Manuel Goepfert

Contact : metmap@orbifly.com




SOURCES & CREDITS :

   NOAA